Hallwood, Virginia
Current Conditions -  °F | °C
As of 6:54 PM on Wednesday 22 Oct 2014 (Local Time) from KWAL Reporting Station
Overcast Overcast  
Wind Chill: 57°   Ceiling: 1700
Heat Index: 57°   Visibility: 10mi
Dew Point: 51°   Wind: 15mph
Humidity: 81%   Direction: 360°N
Pressure: 29.8"   Gusts: 29mph
Location:  37.88°N, 75.59°W
Report Text: KWAL 222254Z 36013G25KT 10SM OVC017 14/11 A2980 RMK AO2 PK WND 34027/2207 SLP089 T01390106
Loading
Personal Weather Stations






























Interactive Weather Map
Tropical Storm Tracking
New forecast layout! Learn more

10-Day Weather Forecast

Advertisements
Track Severe Weather on mobile